createdAt,value
2019-03-24T00:00:05.158Z,10.5
2019-03-24T00:03:05.219Z,9.6
2019-03-24T00:06:05.160Z,10.9
2019-03-24T00:09:05.164Z,9.2
2019-03-24T00:12:05.213Z,10.8
2019-03-24T00:15:05.032Z,10
2019-03-24T00:18:05.006Z,11
2019-03-24T00:21:05.089Z,9.3
2019-03-24T00:24:05.157Z,9.9
2019-03-24T00:27:05.236Z,10.1
2019-03-24T00:30:04.984Z,9.7
2019-03-24T00:33:05.041Z,8.8
2019-03-24T00:36:05.088Z,9.3
2019-03-24T00:39:05.131Z,11.5
2019-03-24T00:42:05.157Z,9.3
2019-03-24T00:45:05.169Z,10.9
2019-03-24T00:48:04.955Z,9.6
2019-03-24T00:51:05.007Z,9.9
2019-03-24T00:54:05.032Z,10
2019-03-24T00:57:05.197Z,9.1
2019-03-24T01:00:05.174Z,9.8
2019-03-24T01:03:05.079Z,9
2019-03-24T01:06:04.995Z,10.3
2019-03-24T01:09:05.101Z,11.6
2019-03-24T01:12:05.084Z,10.3
2019-03-24T01:15:05.204Z,9.3
2019-03-24T01:18:05.196Z,9.9
2019-03-24T01:21:04.933Z,10
2019-03-24T01:24:04.951Z,9.3
2019-03-24T01:27:05.125Z,10.2
2019-03-24T01:30:05.132Z,10.3
2019-03-24T01:33:05.247Z,9.6
2019-03-24T01:36:05.237Z,8.6
2019-03-24T01:39:05.012Z,10
2019-03-24T01:42:04.968Z,9.5
2019-03-24T01:45:05.016Z,10.1
2019-03-24T01:48:05.155Z,10.4
2019-03-24T01:51:05.137Z,10.2
2019-03-24T01:54:05.176Z,9.2
2019-03-24T01:57:04.925Z,8.9
2019-03-24T02:00:05.012Z,11.1
2019-03-24T02:03:04.987Z,8.9
2019-03-24T02:06:05.225Z,9.7
2019-03-24T02:09:05.065Z,10.3
2019-03-24T02:12:05.131Z,9.5
2019-03-24T02:15:05.183Z,9
2019-03-24T02:18:04.979Z,9.2
2019-03-24T02:21:05.003Z,9.3
2019-03-24T02:24:05.064Z,9.8
2019-03-24T02:27:05.253Z,10.6
2019-03-24T02:30:05.208Z,9.9
2019-03-24T02:33:05.252Z,9.4
2019-03-24T02:36:04.978Z,8.7
2019-03-24T02:39:05.042Z,9.7
2019-03-24T02:42:05.056Z,9
2019-03-24T02:45:05.168Z,8.6
2019-03-24T02:48:05.301Z,8.4
2019-03-24T02:51:05.260Z,8.7
2019-03-24T02:54:05.012Z,9.4
2019-03-24T02:57:04.991Z,8.8
2019-03-24T03:00:05.493Z,8.5
2019-03-24T03:03:05.118Z,8.6
2019-03-24T03:06:05.138Z,8.9
2019-03-24T03:09:05.227Z,9.6
2019-03-24T03:12:05.130Z,8.1
2019-03-24T03:15:05.016Z,9.4
2019-03-24T03:18:05.024Z,9.1
2019-03-24T03:21:05.169Z,8.7
2019-03-24T03:24:05.048Z,9.2
2019-03-24T03:27:05.254Z,9.3
2019-03-24T03:30:05.262Z,8.9
2019-03-24T03:33:05.365Z,8.6
2019-03-24T03:36:05.176Z,8.7
2019-03-24T03:39:05.267Z,8.6
2019-03-24T03:42:05.495Z,8.1
2019-03-24T03:45:05.254Z,8.1
2019-03-24T03:48:05.179Z,8.4
2019-03-24T03:51:05.079Z,8.6
2019-03-24T03:54:05.023Z,9
2019-03-24T03:57:05.049Z,8.6
2019-03-24T04:00:05.095Z,8.7
2019-03-24T04:03:05.323Z,8
2019-03-24T04:06:05.141Z,8.8
2019-03-24T04:09:04.966Z,8.3
2019-03-24T04:12:04.965Z,7.9
2019-03-24T04:15:05.047Z,8.3
2019-03-24T04:18:05.073Z,8.4
2019-03-24T04:21:05.166Z,8.4
2019-03-24T04:24:05.140Z,8.9
2019-03-24T04:27:05.222Z,8.9
2019-03-24T04:30:05.177Z,8.5
2019-03-24T04:33:04.914Z,8
2019-03-24T04:36:04.991Z,8.6
2019-03-24T04:39:05.171Z,7.7
2019-03-24T04:42:05.064Z,7.5
2019-03-24T04:45:05.113Z,7.5
2019-03-24T04:48:05.323Z,8.3
2019-03-24T04:51:04.991Z,7.3
2019-03-24T04:54:05.035Z,7.3
2019-03-24T04:57:05.108Z,7.2
2019-03-24T05:00:05.101Z,6.8
2019-03-24T05:03:05.152Z,6.9
2019-03-24T05:06:04.930Z,6.4
2019-03-24T05:09:05.065Z,6.7
2019-03-24T05:12:05.136Z,6.8
2019-03-24T05:15:04.969Z,7
2019-03-24T05:18:05.103Z,6.2
2019-03-24T05:21:05.067Z,6.6
2019-03-24T05:24:04.955Z,6.4
2019-03-24T05:27:05.034Z,6.4
2019-03-24T05:30:05.374Z,6.2
2019-03-24T05:33:05.010Z,6.5
2019-03-24T05:36:05.106Z,6.4
2019-03-24T05:39:05.177Z,6.2
2019-03-24T05:42:04.931Z,6.4
2019-03-24T05:45:04.995Z,5.6
2019-03-24T05:48:04.951Z,6.1
2019-03-24T05:51:04.999Z,6.1
2019-03-24T05:54:05.119Z,5.9
2019-03-24T05:57:05.076Z,5.8
2019-03-24T06:00:05.012Z,5.9
2019-03-24T06:03:04.926Z,6.1
2019-03-24T06:06:04.993Z,6.8
2019-03-24T06:09:05.011Z,6.2
2019-03-24T06:12:05.155Z,5.7
2019-03-24T06:15:05.101Z,5.8
2019-03-24T06:18:04.894Z,6
2019-03-24T06:21:04.995Z,5.6
2019-03-24T06:24:04.930Z,5.8
2019-03-24T06:27:05.055Z,5.7
2019-03-24T06:30:05.018Z,6.2
2019-03-24T06:33:05.235Z,5.6
2019-03-24T06:36:05.339Z,5.8
2019-03-24T06:39:04.932Z,7
2019-03-24T06:42:04.930Z,5.9
2019-03-24T06:45:05.043Z,5.6
2019-03-24T06:48:05.042Z,5.6
2019-03-24T06:51:05.100Z,5.7
2019-03-24T06:54:05.002Z,5.4
2019-03-24T06:57:04.982Z,5.6
2019-03-24T07:00:04.913Z,5.3
2019-03-24T07:03:05.200Z,5.6
2019-03-24T07:06:05.263Z,5.6
2019-03-24T07:09:05.220Z,5.4
2019-03-24T07:12:04.896Z,5.4
2019-03-24T07:15:04.919Z,5.8
2019-03-24T07:18:09.253Z,5.6
2019-03-24T07:21:05.004Z,5.7
2019-03-24T07:24:05.124Z,5.5
2019-03-24T07:27:04.804Z,5.3
2019-03-24T07:30:04.881Z,5.3
2019-03-24T07:33:04.874Z,5.3
2019-03-24T07:36:04.993Z,5.4
2019-03-24T07:39:04.979Z,5.5
2019-03-24T07:42:05.950Z,5.4
2019-03-24T07:45:04.894Z,5.4
2019-03-24T07:48:04.910Z,5.3
2019-03-24T07:51:04.963Z,5.3
2019-03-24T07:54:05.005Z,5.9
2019-03-24T07:57:05.051Z,5.6
2019-03-24T08:00:05.043Z,5.4
2019-03-24T08:03:04.875Z,5.2
2019-03-24T08:06:05.978Z,5.4
2019-03-24T08:09:05.029Z,5
2019-03-24T08:12:04.986Z,5.1
2019-03-24T08:15:04.994Z,5.4
2019-03-24T08:18:04.876Z,6.2
2019-03-24T08:21:04.849Z,5.2
2019-03-24T08:24:05.202Z,4.9
2019-03-24T08:27:05.128Z,5.3
2019-03-24T08:30:04.962Z,5.2
2019-03-24T08:33:05.042Z,5.5
2019-03-24T08:36:04.782Z,5.1
2019-03-24T08:39:04.807Z,5.2
2019-03-24T08:42:04.980Z,5
2019-03-24T08:45:05.437Z,5.4
2019-03-24T08:48:05.008Z,5.4
2019-03-24T08:51:05.000Z,5.2
2019-03-24T08:54:04.805Z,4.9
2019-03-24T08:57:05.020Z,5
2019-03-24T09:00:04.943Z,5
2019-03-24T09:03:05.061Z,4.8
2019-03-24T09:06:05.093Z,5
2019-03-24T09:09:04.876Z,5.1
2019-03-24T09:12:04.790Z,4.9
2019-03-24T09:15:04.826Z,4.8
2019-03-24T09:18:04.970Z,4.9
2019-03-24T09:21:04.939Z,4.7
2019-03-24T09:24:05.034Z,10.9
2019-03-24T09:27:04.859Z,18.5
2019-03-24T09:30:04.875Z,20.6
2019-03-24T09:33:04.971Z,23.8
2019-03-24T09:36:05.015Z,25.9
2019-03-24T09:39:05.055Z,27.4
2019-03-24T09:42:05.042Z,27.3
2019-03-24T09:45:04.770Z,28.6
2019-03-24T09:48:04.821Z,28.7
2019-03-24T09:51:04.888Z,30.4
2019-03-24T09:54:05.099Z,27.4
2019-03-24T09:57:04.994Z,27.6
2019-03-24T10:00:05.108Z,23.7
2019-03-24T10:03:04.834Z,25.8
2019-03-24T10:06:04.860Z,27.2
2019-03-24T10:09:05.046Z,20.4
2019-03-24T10:12:04.938Z,21.7
2019-03-24T10:15:04.974Z,22.4
2019-03-24T10:18:04.714Z,21.5
2019-03-24T10:21:04.922Z,24.3
2019-03-24T10:24:04.846Z,21.3
2019-03-24T10:27:04.857Z,17.7
2019-03-24T10:30:04.916Z,16.2
2019-03-24T10:33:05.118Z,14.6
2019-03-24T10:36:04.867Z,14.6
2019-03-24T10:39:04.873Z,15.1
2019-03-24T10:42:04.962Z,22.5
2019-03-24T10:45:05.016Z,23.2
2019-03-24T10:48:04.952Z,26.4
2019-03-24T10:51:05.001Z,20.4
2019-03-24T10:54:05.089Z,19.4
2019-03-24T10:57:05.715Z,15.7
2019-03-24T11:00:04.995Z,14.7
2019-03-24T11:03:04.912Z,13
2019-03-24T11:06:05.051Z,19
2019-03-24T11:09:04.978Z,13
2019-03-24T11:12:04.807Z,12.7
2019-03-24T11:15:05.227Z,12.3
2019-03-24T11:18:04.930Z,12.6
2019-03-24T11:21:04.872Z,9.7
2019-03-24T11:24:04.931Z,10.2
2019-03-24T11:27:05.001Z,8.6
2019-03-24T11:30:04.783Z,10.7
2019-03-24T11:33:04.748Z,10.1
2019-03-24T11:36:04.782Z,8.9
2019-03-24T11:39:04.853Z,10.2
2019-03-24T11:42:04.925Z,9.8
2019-03-24T11:45:05.095Z,11.6
2019-03-24T11:48:04.814Z,9.2
2019-03-24T11:51:04.759Z,9.4
2019-03-24T11:54:04.822Z,7.7
2019-03-24T11:57:04.850Z,7.5
2019-03-24T12:00:04.924Z,9.5
2019-03-24T12:03:04.930Z,7.7
2019-03-24T12:06:15.314Z,7.2
2019-03-24T12:09:04.742Z,8.8
2019-03-24T12:12:04.792Z,7.8
2019-03-24T12:15:05.883Z,7.2
2019-03-24T12:18:04.879Z,5.8
2019-03-24T12:21:05.173Z,6.9
2019-03-24T12:24:04.778Z,6.1
2019-03-24T12:27:04.837Z,7.5
2019-03-24T12:30:04.758Z,5.6
2019-03-24T12:33:04.888Z,5.6
2019-03-24T12:36:04.872Z,5.1
2019-03-24T12:39:04.923Z,6.4
2019-03-24T12:42:04.970Z,5.9
2019-03-24T12:45:04.722Z,5.3
2019-03-24T12:48:04.820Z,6.9
2019-03-24T12:51:04.827Z,9.2
2019-03-24T12:54:04.958Z,5.8
2019-03-24T12:57:04.931Z,6.8
2019-03-24T13:00:04.952Z,5.8
2019-03-24T13:03:05.333Z,6
2019-03-24T13:06:04.771Z,5.9
2019-03-24T13:09:04.799Z,5.5
2019-03-24T13:12:04.813Z,5.9
2019-03-24T13:15:04.907Z,5.4
2019-03-24T13:18:05.021Z,5.8
2019-03-24T13:21:04.689Z,6.7
2019-03-24T13:24:04.930Z,6.6
2019-03-24T13:27:04.888Z,5.3
2019-03-24T13:30:04.810Z,5.3
2019-03-24T13:33:05.036Z,5
2019-03-24T13:36:04.879Z,5.4
2019-03-24T13:39:04.808Z,6.1
2019-03-24T13:42:04.759Z,8.1
2019-03-24T13:45:04.767Z,10.4
2019-03-24T13:48:04.937Z,7.5
2019-03-24T13:51:04.879Z,9
2019-03-24T13:54:04.912Z,7.3
2019-03-24T13:57:04.973Z,8.5
2019-03-24T14:00:04.726Z,7.9
2019-03-24T14:03:04.698Z,8.4
2019-03-24T14:06:04.908Z,7.5
2019-03-24T14:09:04.780Z,5.9
2019-03-24T14:12:04.837Z,6.8
2019-03-24T14:15:04.865Z,6.6
2019-03-24T14:18:04.786Z,6.4
2019-03-24T14:21:04.814Z,7
2019-03-24T14:24:04.728Z,5.2
2019-03-24T14:27:04.843Z,6
2019-03-24T14:30:05.261Z,9.1
2019-03-24T14:33:04.897Z,11.8
2019-03-24T14:36:04.999Z,7.6
2019-03-24T14:39:04.759Z,7.5
2019-03-24T14:42:04.763Z,8.6
2019-03-24T14:45:04.797Z,11
2019-03-24T14:48:04.818Z,8
2019-03-24T14:51:06.058Z,7.7
2019-03-24T14:54:04.840Z,6.2
2019-03-24T15:02:21.349Z,6.7
2019-03-24T15:05:21.337Z,5.8
2019-03-24T15:08:21.124Z,6
2019-03-24T15:11:21.193Z,9.2
2019-03-24T15:14:21.185Z,7
2019-03-24T15:17:21.221Z,7.1
2019-03-24T15:20:21.431Z,5.9
2019-03-24T15:23:21.265Z,8.1
2019-03-24T15:26:21.045Z,6.1
2019-03-24T15:29:21.224Z,5.8
2019-03-24T15:32:21.196Z,5.2
2019-03-24T15:35:22.530Z,6.7
2019-03-24T15:38:21.157Z,6.8
2019-03-24T15:41:21.187Z,5.5
2019-03-24T15:44:21.094Z,5.3
2019-03-24T15:47:21.301Z,5.6
2019-03-24T15:50:21.239Z,6.2
2019-03-24T15:53:21.295Z,5.5
2019-03-24T15:56:21.752Z,6.8
2019-03-24T15:59:21.272Z,4.9
2019-03-24T16:02:20.967Z,5.4
2019-03-24T16:05:21.047Z,5.2
2019-03-24T16:08:21.073Z,5.7
2019-03-24T16:11:21.208Z,5.1
2019-03-24T16:14:21.260Z,5.4
2019-03-24T16:17:21.436Z,5.6
2019-03-24T16:20:20.975Z,5.1
2019-03-24T16:23:21.076Z,4.6
2019-03-24T16:26:21.185Z,5.3
2019-03-24T16:29:21.262Z,4.9
2019-03-24T16:32:21.142Z,4.7
2019-03-24T16:35:21.163Z,5.8
2019-03-24T16:38:21.212Z,4.5
2019-03-24T16:41:21.083Z,4.8
2019-03-24T16:44:21.138Z,4.7
2019-03-24T16:47:21.038Z,4.5
2019-03-24T16:50:21.283Z,4.6
2019-03-24T16:53:21.161Z,4.3
2019-03-24T16:56:21.264Z,6.7
2019-03-24T16:59:22.420Z,5.5
2019-03-24T17:02:21.063Z,5.3
2019-03-24T17:05:21.146Z,4.9
2019-03-24T17:08:21.115Z,5
2019-03-24T17:11:21.155Z,4.6
2019-03-24T17:14:21.505Z,6
2019-03-24T17:17:20.954Z,5.1
2019-03-24T17:20:21.172Z,5
2019-03-24T17:23:21.395Z,4.3
2019-03-24T17:26:21.153Z,4.6
2019-03-24T17:29:21.206Z,5.4
2019-03-24T17:32:21.234Z,4.3
2019-03-24T17:35:21.255Z,5
2019-03-24T17:38:21.005Z,4.5
2019-03-24T17:41:21.048Z,4.7
2019-03-24T17:44:21.296Z,4.6
2019-03-24T17:47:21.207Z,5.3
2019-03-24T17:50:21.239Z,5.5
2019-03-24T17:53:22.618Z,5.3
2019-03-24T17:56:21.151Z,5.9
2019-03-24T17:59:21.116Z,6.4
2019-03-24T18:02:21.034Z,4.1
2019-03-24T18:05:21.211Z,4.5
2019-03-24T18:08:22.380Z,6.3
2019-03-24T18:11:21.213Z,4.2
2019-03-24T18:14:21.010Z,4.6
2019-03-24T18:17:20.995Z,3.9
2019-03-24T18:20:21.170Z,4.5
2019-03-24T18:23:21.189Z,4.6
2019-03-24T18:26:21.125Z,5.3
2019-03-24T18:29:21.141Z,4.2
2019-03-24T18:32:23.593Z,4.7
2019-03-24T18:35:21.057Z,4
2019-03-24T18:38:21.073Z,3.9
2019-03-24T18:41:21.121Z,4.3
2019-03-24T18:44:21.107Z,4.2
2019-03-24T18:47:21.141Z,4.6
2019-03-24T18:50:21.508Z,4.3
2019-03-24T18:53:21.026Z,4
2019-03-24T18:56:21.107Z,6.3
2019-03-24T18:59:21.168Z,4.9
2019-03-24T19:02:21.079Z,3.8
2019-03-24T19:05:21.130Z,4
2019-03-24T19:08:21.307Z,3.9
2019-03-24T19:11:21.021Z,3.8
2019-03-24T19:14:21.340Z,5.3
2019-03-24T19:17:21.172Z,3.4
2019-03-24T19:20:21.133Z,3.9
2019-03-24T19:23:21.235Z,3.9
2019-03-24T19:26:21.214Z,5.3
2019-03-24T19:29:21.028Z,3.6
2019-03-24T19:32:21.072Z,3.8
2019-03-24T19:35:21.167Z,3.7
2019-03-24T19:38:21.165Z,4.6
2019-03-24T19:41:21.143Z,3.6
2019-03-24T19:44:21.232Z,3.6
2019-03-24T19:47:20.981Z,3.5
2019-03-24T19:50:21.014Z,3.5
2019-03-24T19:53:21.016Z,3.7
2019-03-24T19:56:21.005Z,3.6
2019-03-24T19:59:21.189Z,5.9
2019-03-24T20:02:21.101Z,5
2019-03-24T20:05:21.013Z,4.8
2019-03-24T20:08:20.944Z,3.5
2019-03-24T20:11:21.043Z,4.1
2019-03-24T20:14:21.039Z,4.9
2019-03-24T20:17:21.251Z,4.8
2019-03-24T20:20:21.193Z,4.1
2019-03-24T20:23:21.274Z,3.9
2019-03-24T20:26:21.021Z,4
2019-03-24T20:29:20.930Z,4.6
2019-03-24T20:32:20.966Z,4.4
2019-03-24T20:35:21.046Z,3.7
2019-03-24T20:38:21.284Z,4.2
2019-03-24T20:41:20.932Z,3.8
2019-03-24T20:44:21.071Z,3.7
2019-03-24T20:47:21.013Z,3.6
2019-03-24T20:50:21.028Z,3.8
2019-03-24T20:53:21.047Z,3.6
2019-03-24T20:56:21.375Z,3.5
2019-03-24T20:59:21.116Z,3.6
2019-03-24T21:02:20.962Z,3.4
2019-03-24T21:05:21.092Z,3.6
2019-03-24T21:08:21.128Z,3.8
2019-03-24T21:11:20.991Z,4.5
2019-03-24T21:14:21.096Z,3.6
2019-03-24T21:17:21.140Z,3.7
2019-03-24T21:20:20.914Z,3.6
2019-03-24T21:23:30.433Z,3.7
2019-03-24T21:26:21.002Z,3.8
2019-03-24T21:29:21.154Z,3.7
2019-03-24T21:32:21.060Z,4
2019-03-24T21:35:21.330Z,4.2
2019-03-24T21:38:20.866Z,4.2
2019-03-24T21:41:21.030Z,4.8
2019-03-24T21:44:21.295Z,3.9
2019-03-24T21:47:20.980Z,4.4
2019-03-24T21:50:21.098Z,3.8
2019-03-24T21:53:21.077Z,3.9
2019-03-24T21:56:21.014Z,3.2
2019-03-24T21:59:20.948Z,4
2019-03-24T22:02:21.005Z,3.5
2019-03-24T22:05:21.275Z,3.8
2019-03-24T22:08:21.110Z,4.9
2019-03-24T22:11:21.175Z,3.5
2019-03-24T22:14:20.854Z,3.5
2019-03-24T22:17:21.051Z,3.5
2019-03-24T22:20:21.007Z,3.1
2019-03-24T22:23:21.131Z,3.4
2019-03-24T22:26:21.177Z,3.4
2019-03-24T22:29:21.067Z,3.8
2019-03-24T22:32:20.972Z,3.2
2019-03-24T22:35:21.031Z,3.3
2019-03-24T22:38:21.061Z,3.8
2019-03-24T22:41:21.018Z,3.5
2019-03-24T22:44:21.128Z,3.3
2019-03-24T22:47:21.094Z,3.4
2019-03-24T22:50:20.864Z,3.2
2019-03-24T22:53:20.905Z,4
2019-03-24T22:56:20.908Z,3.2
2019-03-24T22:59:20.979Z,3.2
2019-03-24T23:02:21.052Z,3.4
2019-03-24T23:05:21.062Z,3.3
2019-03-24T23:08:20.891Z,3.4
2019-03-24T23:11:20.887Z,3.1
2019-03-24T23:14:20.972Z,3.2
2019-03-24T23:17:21.067Z,3.4
2019-03-24T23:20:21.049Z,3.2
2019-03-24T23:23:21.105Z,3.2
2019-03-24T23:26:20.841Z,3.1
2019-03-24T23:29:20.953Z,3.3
2019-03-24T23:32:20.897Z,2.9
2019-03-24T23:35:21.017Z,3.2
2019-03-24T23:38:21.007Z,2.8
2019-03-24T23:41:21.293Z,2.9
2019-03-24T23:44:20.893Z,3.1
2019-03-24T23:47:20.900Z,3.1
2019-03-24T23:50:20.940Z,3
2019-03-24T23:53:21.567Z,3
2019-03-24T23:56:21.111Z,2.8
2019-03-24T23:59:21.196Z,2.9
